createdAt,value
2023-10-26T00:00:41.391Z,51.70
2023-10-26T00:03:08.960Z,38.13
2023-10-26T00:05:36.526Z,32.17
2023-10-26T00:08:03.983Z,23.60
2023-10-26T00:10:31.341Z,21.50
2023-10-26T00:12:58.705Z,18.00
2023-10-26T00:15:26.146Z,14.80
2023-10-26T00:17:53.647Z,15.85
2023-10-26T00:20:21.102Z,15.88
2023-10-26T00:22:48.444Z,15.85
2023-10-26T00:25:15.914Z,14.90
2023-10-26T00:27:43.230Z,15.43
2023-10-26T00:30:12.000Z,12.65
2023-10-26T00:32:40.247Z,14.45
2023-10-26T00:35:07.791Z,15.75
2023-10-26T00:37:35.290Z,16.30
2023-10-26T00:40:02.693Z,18.38
2023-10-26T00:42:30.109Z,14.70
2023-10-26T00:44:58.327Z,14.45
2023-10-26T00:47:27.242Z,13.20
2023-10-26T00:49:55.441Z,16.50
2023-10-26T00:52:23.612Z,14.07
2023-10-26T00:54:51.046Z,15.63
2023-10-26T00:57:19.516Z,19.13
2023-10-26T00:59:47.731Z,16.50
2023-10-26T01:02:15.864Z,18.03
2023-10-26T01:04:44.050Z,17.45
2023-10-26T01:07:11.817Z,14.55
2023-10-26T01:09:39.275Z,19.42
2023-10-26T01:12:06.892Z,18.73
2023-10-26T01:14:34.354Z,16.50
2023-10-26T01:17:02.447Z,18.73
2023-10-26T01:19:40.139Z,17.15
2023-10-26T01:22:07.713Z,17.95
2023-10-26T01:24:35.389Z,17.98
2023-10-26T01:27:02.759Z,21.30
2023-10-26T01:29:30.243Z,17.70
2023-10-26T01:31:57.712Z,18.50
2023-10-26T01:34:25.169Z,19.50
2023-10-26T01:36:52.944Z,19.80
2023-10-26T01:39:20.833Z,21.50
2023-10-26T01:41:48.655Z,22.33
2023-10-26T01:44:16.141Z,21.55
2023-10-26T01:46:43.518Z,23.55
2023-10-26T01:49:11.733Z,22.98
2023-10-26T01:51:40.659Z,20.57
2023-10-26T01:54:10.112Z,21.60
2023-10-26T01:56:38.877Z,20.83
2023-10-26T01:59:06.673Z,20.17
2023-10-26T02:01:34.100Z,18.77
2023-10-26T02:04:01.558Z,21.60
2023-10-26T02:06:29.164Z,21.95
2023-10-26T02:08:57.945Z,21.10
2023-10-26T02:11:25.343Z,20.48
2023-10-26T02:13:52.758Z,19.70
2023-10-26T02:16:21.460Z,23.57
2023-10-26T02:18:49.132Z,21.90
2023-10-26T02:21:16.754Z,21.60
2023-10-26T02:23:45.918Z,19.63
2023-10-26T02:26:13.319Z,22.40
2023-10-26T02:28:40.626Z,23.60
2023-10-26T02:31:08.011Z,22.02
2023-10-26T02:33:35.426Z,22.20
2023-10-26T02:36:05.873Z,21.80
2023-10-26T02:38:33.383Z,21.58
2023-10-26T02:41:05.037Z,21.00
2023-10-26T02:43:32.605Z,22.67
2023-10-26T02:46:06.459Z,21.02
2023-10-26T02:48:35.306Z,20.50
2023-10-26T02:51:03.196Z,22.80
2023-10-26T02:53:30.856Z,24.17
2023-10-26T02:55:58.235Z,24.70
2023-10-26T02:58:25.619Z,23.95
2023-10-26T03:00:55.313Z,20.92
2023-10-26T03:03:23.148Z,22.23
2023-10-26T03:05:50.567Z,19.13
2023-10-26T03:08:18.249Z,23.67
2023-10-26T03:10:45.781Z,20.20
2023-10-26T03:13:13.163Z,20.83
2023-10-26T03:15:40.551Z,21.85
2023-10-26T03:18:08.217Z,21.17
2023-10-26T03:20:36.081Z,21.77
2023-10-26T03:23:03.531Z,20.52
2023-10-26T03:25:30.914Z,20.92
2023-10-26T03:27:58.237Z,22.00
2023-10-26T03:30:25.678Z,21.83
2023-10-26T03:32:53.204Z,19.33
2023-10-26T03:35:20.727Z,19.70
2023-10-26T03:37:48.066Z,21.08
2023-10-26T03:40:15.959Z,19.00
2023-10-26T03:42:43.436Z,21.60
2023-10-26T03:45:11.352Z,20.23
2023-10-26T03:47:38.799Z,18.63
2023-10-26T03:50:06.529Z,20.05
2023-10-26T03:52:33.887Z,20.40
2023-10-26T03:55:01.228Z,23.53
2023-10-26T03:57:28.695Z,21.25
2023-10-26T03:59:56.050Z,19.05
2023-10-26T04:02:23.763Z,21.02
2023-10-26T04:04:51.792Z,19.17
2023-10-26T04:07:19.794Z,19.37
2023-10-26T04:09:47.146Z,21.23
2023-10-26T04:12:14.604Z,20.95
2023-10-26T04:14:42.251Z,21.50
2023-10-26T04:17:13.575Z,20.80
2023-10-26T04:19:40.912Z,23.03
2023-10-26T04:22:08.309Z,21.48
2023-10-26T04:24:35.921Z,21.67
2023-10-26T04:27:03.564Z,17.23
2023-10-26T04:29:31.868Z,20.33
2023-10-26T04:31:59.359Z,21.87
2023-10-26T04:34:28.662Z,27.20
2023-10-26T04:36:57.001Z,21.75
2023-10-26T04:39:24.473Z,47.95
2023-10-26T04:41:51.918Z,30.50
2023-10-26T04:44:19.885Z,87.47
2023-10-26T04:46:47.288Z,65.90
2023-10-26T04:49:14.665Z,96.95
2023-10-26T04:51:42.053Z,48.85
2023-10-26T04:54:09.464Z,47.42
2023-10-26T04:56:36.936Z,24.17
2023-10-26T04:59:04.308Z,146.80
2023-10-26T05:01:31.770Z,46.15
2023-10-26T05:03:59.150Z,89.00
2023-10-26T05:06:26.780Z,198.25
2023-10-26T05:08:54.281Z,123.83
2023-10-26T05:11:22.412Z,107.30
2023-10-26T05:13:53.532Z,110.32
2023-10-26T05:16:21.300Z,31.75
2023-10-26T05:18:48.821Z,120.68
2023-10-26T05:21:16.229Z,37.67
2023-10-26T05:23:45.037Z,47.97
2023-10-26T05:26:12.373Z,100.95
2023-10-26T05:28:39.821Z,64.75
2023-10-26T05:31:07.170Z,59.03
2023-10-26T05:33:34.951Z,56.60
2023-10-26T05:36:02.404Z,88.68
2023-10-26T05:38:29.920Z,113.93
2023-10-26T05:40:57.816Z,56.70
2023-10-26T05:43:25.191Z,122.97
2023-10-26T05:45:54.508Z,77.20
2023-10-26T05:48:24.457Z,113.80
2023-10-26T05:50:51.977Z,103.78
2023-10-26T05:53:19.272Z,177.18
2023-10-26T05:55:57.092Z,81.60
2023-10-26T05:58:24.432Z,93.47
2023-10-26T06:00:51.953Z,123.70
2023-10-26T06:03:19.406Z,232.23
2023-10-26T06:05:48.732Z,205.50
2023-10-26T06:08:16.181Z,152.98
2023-10-26T06:10:43.820Z,193.57
2023-10-26T06:13:11.917Z,225.07
2023-10-26T06:15:39.384Z,157.25
2023-10-26T06:18:06.952Z,128.63
2023-10-26T06:20:34.535Z,88.90
2023-10-26T06:23:01.939Z,79.57
2023-10-26T06:25:30.103Z,231.73
2023-10-26T06:27:57.855Z,236.75
2023-10-26T06:30:28.413Z,109.35
2023-10-26T06:32:55.973Z,189.98
2023-10-26T06:35:23.418Z,156.70
2023-10-26T06:37:50.757Z,136.32
2023-10-26T06:40:18.242Z,41.67
2023-10-26T06:42:45.583Z,79.50
2023-10-26T06:45:13.185Z,89.78
2023-10-26T06:47:40.647Z,123.03
2023-10-26T06:50:08.604Z,127.68
2023-10-26T06:52:36.013Z,169.68
2023-10-26T06:55:09.054Z,211.43
2023-10-26T06:57:45.750Z,80.45
2023-10-26T07:00:13.708Z,150.77
2023-10-26T07:02:41.620Z,149.93
2023-10-26T07:05:09.290Z,83.38
2023-10-26T07:07:37.616Z,73.90
2023-10-26T07:10:05.115Z,138.98
2023-10-26T07:12:32.617Z,159.40
2023-10-26T07:15:01.113Z,67.05
2023-10-26T07:17:28.978Z,39.05
2023-10-26T07:19:56.430Z,100.70
2023-10-26T07:22:23.795Z,114.63
2023-10-26T07:24:51.208Z,41.87
2023-10-26T07:27:18.707Z,113.65
2023-10-26T07:29:47.481Z,120.25
2023-10-26T07:32:14.877Z,77.05
2023-10-26T07:34:42.574Z,124.25
2023-10-26T07:37:10.223Z,139.30
2023-10-26T07:39:45.253Z,79.68
2023-10-26T07:42:14.775Z,23.17
2023-10-26T07:44:42.594Z,57.97
2023-10-26T07:47:10.569Z,71.85
2023-10-26T07:49:38.252Z,70.53
2023-10-26T07:52:06.323Z,79.03
2023-10-26T07:54:33.902Z,79.38
2023-10-26T07:57:01.295Z,114.38
2023-10-26T07:59:28.732Z,80.90
2023-10-26T08:01:56.282Z,53.57
2023-10-26T08:04:23.786Z,59.08
2023-10-26T08:06:51.210Z,107.35
2023-10-26T08:09:18.633Z,80.70
2023-10-26T08:11:46.029Z,99.18
2023-10-26T08:14:42.472Z,144.17
2023-10-26T08:17:01.012Z,28.17
2023-10-26T08:19:29.128Z,88.75
2023-10-26T08:21:56.570Z,51.78
2023-10-26T08:24:24.004Z,27.17
2023-10-26T08:26:52.611Z,22.43
2023-10-26T08:29:27.999Z,19.13
2023-10-26T08:31:56.388Z,47.25
2023-10-26T08:34:23.786Z,34.25
2023-10-26T08:37:07.970Z,21.05
2023-10-26T08:39:38.799Z,43.40
2023-10-26T08:42:06.365Z,34.05
2023-10-26T08:44:33.953Z,15.90
2023-10-26T08:47:03.963Z,27.20
2023-10-26T08:49:32.087Z,35.15
2023-10-26T08:52:00.208Z,18.50
2023-10-26T08:54:28.194Z,21.73
2023-10-26T08:56:56.477Z,16.38
2023-10-26T08:59:26.729Z,23.00
2023-10-26T09:01:54.266Z,14.95
2023-10-26T09:04:21.965Z,26.70
2023-10-26T09:06:50.540Z,15.77
2023-10-26T09:09:19.815Z,11.77
2023-10-26T09:11:49.331Z,16.33
2023-10-26T09:14:20.424Z,14.18
2023-10-26T09:16:48.475Z,10.97
2023-10-26T09:19:16.775Z,11.80
2023-10-26T09:21:53.724Z,14.18
2023-10-26T09:24:28.047Z,10.90
2023-10-26T09:26:56.331Z,16.08
2023-10-26T09:29:36.417Z,26.97
2023-10-26T09:32:04.355Z,19.40
2023-10-26T09:34:31.957Z,39.63
2023-10-26T09:37:06.342Z,21.10
2023-10-26T09:39:37.821Z,22.13
2023-10-26T09:42:07.810Z,17.50
2023-10-26T09:44:37.485Z,14.70
2023-10-26T09:47:05.531Z,16.77
2023-10-26T09:49:33.220Z,17.67
2023-10-26T09:52:00.597Z,32.80
2023-10-26T09:54:37.078Z,13.77
2023-10-26T09:57:22.644Z,19.10
2023-10-26T09:59:53.087Z,11.15
2023-10-26T10:02:21.076Z,16.30
2023-10-26T10:04:50.074Z,21.80
2023-10-26T10:07:21.030Z,13.73
2023-10-26T10:10:06.934Z,13.80
2023-10-26T10:12:35.473Z,11.57
2023-10-26T10:15:29.290Z,15.18
2023-10-26T10:17:52.443Z,13.48
2023-10-26T10:20:19.869Z,19.07
2023-10-26T10:22:47.206Z,12.70
2023-10-26T10:25:15.335Z,12.25
2023-10-26T10:28:03.730Z,12.40
2023-10-26T10:30:48.422Z,13.23
2023-10-26T10:33:28.850Z,10.93
2023-10-26T10:36:03.571Z,13.27
2023-10-26T10:38:31.597Z,12.68
2023-10-26T10:41:02.932Z,11.85
2023-10-26T10:43:33.497Z,12.13
2023-10-26T10:46:20.360Z,10.70
2023-10-26T10:49:04.626Z,10.60
2023-10-26T10:51:36.293Z,12.00
2023-10-26T10:54:22.393Z,10.75
2023-10-26T10:56:57.987Z,11.10
2023-10-26T10:59:30.974Z,10.47
2023-10-26T11:02:08.981Z,11.15
2023-10-26T11:04:47.990Z,9.95
2023-10-26T11:07:28.378Z,10.75
2023-10-26T11:09:58.948Z,11.90
2023-10-26T11:12:26.689Z,10.10
2023-10-26T11:14:54.829Z,11.63
2023-10-26T11:17:22.887Z,11.05
2023-10-26T11:19:50.740Z,13.30
2023-10-26T11:22:19.844Z,11.52
2023-10-26T11:24:47.495Z,13.17
2023-10-26T11:27:14.982Z,11.60
2023-10-26T11:29:42.890Z,15.32
2023-10-26T11:32:25.409Z,11.13
2023-10-26T11:35:12.058Z,10.70
2023-10-26T11:37:41.229Z,10.37
2023-10-26T11:40:10.032Z,11.60
2023-10-26T11:42:47.731Z,13.80
2023-10-26T11:45:18.965Z,13.15
2023-10-26T11:47:52.303Z,11.52
2023-10-26T11:50:26.741Z,14.20
2023-10-26T11:52:55.529Z,12.32
2023-10-26T11:55:24.100Z,17.13
2023-10-26T11:57:51.961Z,14.85
2023-10-26T12:00:20.500Z,13.43
2023-10-26T12:02:48.157Z,14.50
2023-10-26T12:05:19.598Z,13.60
2023-10-26T12:07:47.707Z,14.65
2023-10-26T12:10:16.425Z,13.18
2023-10-26T12:12:43.856Z,13.55
2023-10-26T12:15:11.800Z,13.83
2023-10-26T12:17:39.252Z,13.15
2023-10-26T12:20:07.035Z,13.90
2023-10-26T12:22:34.515Z,12.15
2023-10-26T12:25:07.779Z,12.52
2023-10-26T12:28:21.187Z,11.10
2023-10-26T12:30:22.993Z,11.35
2023-10-26T12:32:50.320Z,13.57
2023-10-26T12:35:17.743Z,11.02
2023-10-26T12:37:45.154Z,15.75
2023-10-26T12:40:12.703Z,11.53
2023-10-26T12:42:40.692Z,12.45
2023-10-26T12:45:08.329Z,13.05
2023-10-26T12:47:35.707Z,15.80
2023-10-26T12:50:03.116Z,14.68
2023-10-26T12:52:31.739Z,12.07
2023-10-26T12:54:59.290Z,11.98
2023-10-26T12:57:26.678Z,16.90
2023-10-26T12:59:54.189Z,13.48
2023-10-26T13:02:21.645Z,15.90
2023-10-26T13:04:49.068Z,16.13
2023-10-26T13:07:16.620Z,12.90
2023-10-26T13:09:45.686Z,14.07
2023-10-26T13:12:13.231Z,11.60
2023-10-26T13:14:40.623Z,10.98
2023-10-26T13:17:07.979Z,11.93
2023-10-26T13:19:36.039Z,14.13
2023-10-26T13:22:03.483Z,12.50
2023-10-26T13:24:32.055Z,12.90
2023-10-26T13:26:59.391Z,12.38
2023-10-26T13:29:26.846Z,12.20
2023-10-26T13:31:54.296Z,12.15
2023-10-26T13:34:21.665Z,15.05
2023-10-26T13:36:49.077Z,13.95
2023-10-26T13:39:16.477Z,15.73
2023-10-26T13:41:43.865Z,15.63
2023-10-26T13:44:11.220Z,15.82
2023-10-26T13:46:39.257Z,15.00
2023-10-26T13:49:06.959Z,15.38
2023-10-26T13:51:34.381Z,16.58
2023-10-26T13:54:01.711Z,14.97
2023-10-26T13:56:29.096Z,15.35
2023-10-26T13:58:56.522Z,15.90
2023-10-26T14:01:24.056Z,15.57
2023-10-26T14:03:51.517Z,14.90
2023-10-26T14:06:19.115Z,16.63
2023-10-26T14:08:46.480Z,18.33
2023-10-26T14:11:17.160Z,19.75
2023-10-26T14:13:44.563Z,17.35
2023-10-26T14:16:12.330Z,17.10
2023-10-26T14:18:39.857Z,15.50
2023-10-26T14:21:07.323Z,16.45
2023-10-26T14:23:34.725Z,18.10
2023-10-26T14:26:02.606Z,15.30
2023-10-26T14:28:30.078Z,17.00
2023-10-26T14:30:57.893Z,17.37
2023-10-26T14:33:25.465Z,15.00
2023-10-26T14:35:53.273Z,14.52
2023-10-26T14:38:20.924Z,17.50
2023-10-26T14:40:55.951Z,15.55
2023-10-26T14:43:23.325Z,16.77
2023-10-26T14:45:50.706Z,14.60
2023-10-26T14:48:18.150Z,15.93
2023-10-26T14:50:46.487Z,14.82
2023-10-26T14:53:14.648Z,20.80
2023-10-26T14:55:42.725Z,16.87
2023-10-26T14:58:10.178Z,17.35
2023-10-26T15:00:39.587Z,15.90
2023-10-26T15:03:07.742Z,14.63
2023-10-26T15:05:35.757Z,15.48
2023-10-26T15:08:03.534Z,17.00
2023-10-26T15:10:34.919Z,15.63
2023-10-26T15:13:04.773Z,15.68
2023-10-26T15:15:32.560Z,16.38
2023-10-26T15:18:00.077Z,16.88
2023-10-26T15:20:27.527Z,15.90
2023-10-26T15:22:54.999Z,15.98
2023-10-26T15:25:22.571Z,14.63
2023-10-26T15:27:49.960Z,15.13
2023-10-26T15:30:17.472Z,14.95
2023-10-26T15:32:45.010Z,14.43
2023-10-26T15:35:12.400Z,19.15
2023-10-26T15:37:39.867Z,19.33
2023-10-26T15:40:07.518Z,15.32
2023-10-26T15:42:34.947Z,14.50
2023-10-26T15:45:02.398Z,14.30
2023-10-26T15:47:29.768Z,11.93
2023-10-26T15:49:59.385Z,14.68
2023-10-26T15:52:27.047Z,12.75
2023-10-26T15:54:54.401Z,13.45
2023-10-26T15:57:22.349Z,13.27
2023-10-26T15:59:49.984Z,12.63
2023-10-26T16:02:17.389Z,12.40
2023-10-26T16:04:45.018Z,14.68
2023-10-26T16:07:12.625Z,14.27
2023-10-26T16:09:40.006Z,13.50
2023-10-26T16:12:09.357Z,14.85
2023-10-26T16:14:36.825Z,18.67
2023-10-26T16:17:09.252Z,17.20
2023-10-26T16:19:36.692Z,14.25
2023-10-26T16:22:04.725Z,15.40
2023-10-26T16:24:32.198Z,17.55
2023-10-26T16:26:59.662Z,19.67
2023-10-26T16:29:27.093Z,16.77
2023-10-26T16:31:54.397Z,14.35
2023-10-26T16:34:21.751Z,16.50
2023-10-26T16:36:49.193Z,17.80
2023-10-26T16:39:16.600Z,16.35
2023-10-26T16:41:44.004Z,13.38
2023-10-26T16:44:11.403Z,18.20
2023-10-26T16:46:38.826Z,17.97
2023-10-26T16:49:06.294Z,14.50
2023-10-26T16:51:33.743Z,15.43
2023-10-26T16:54:01.356Z,15.35
2023-10-26T16:56:30.232Z,14.35
2023-10-26T16:58:57.741Z,14.93
2023-10-26T17:01:25.191Z,16.98
2023-10-26T17:03:52.621Z,17.27
2023-10-26T17:06:19.982Z,17.38
2023-10-26T17:08:48.644Z,19.38
2023-10-26T17:11:16.445Z,16.40
2023-10-26T17:13:43.805Z,15.88
2023-10-26T17:16:11.243Z,16.77
2023-10-26T17:18:38.660Z,14.82
2023-10-26T17:21:06.237Z,15.57
2023-10-26T17:23:33.707Z,19.67
2023-10-26T17:26:01.133Z,17.40
2023-10-26T17:28:28.492Z,17.38
2023-10-26T17:31:05.466Z,22.90
2023-10-26T17:33:32.840Z,29.95
2023-10-26T17:36:00.260Z,30.23
2023-10-26T17:38:27.889Z,21.92
2023-10-26T17:40:55.276Z,27.45
2023-10-26T17:43:22.680Z,18.50
2023-10-26T17:45:56.735Z,17.33
2023-10-26T17:48:24.255Z,20.03
2023-10-26T17:50:51.612Z,15.48
2023-10-26T17:53:20.347Z,16.50
2023-10-26T17:55:48.683Z,17.02
2023-10-26T17:58:16.087Z,16.85
2023-10-26T18:00:43.462Z,16.80
2023-10-26T18:03:10.815Z,16.50
2023-10-26T18:05:38.142Z,16.52
2023-10-26T18:08:05.748Z,18.58
2023-10-26T18:10:33.212Z,20.25
2023-10-26T18:13:00.581Z,16.77
2023-10-26T18:15:28.063Z,16.88
2023-10-26T18:17:55.460Z,18.65
2023-10-26T18:20:22.844Z,24.83
2023-10-26T18:22:50.190Z,30.88
2023-10-26T18:25:17.571Z,23.27
2023-10-26T18:27:45.004Z,19.65
2023-10-26T18:30:12.610Z,21.63
2023-10-26T18:32:40.212Z,19.80
2023-10-26T18:35:07.886Z,28.85
2023-10-26T18:37:36.823Z,23.20
2023-10-26T18:40:06.999Z,19.52
2023-10-26T18:42:34.482Z,19.35
2023-10-26T18:45:01.840Z,20.85
2023-10-26T18:47:29.511Z,26.65
2023-10-26T18:49:56.915Z,29.50
2023-10-26T18:52:25.484Z,26.27
2023-10-26T18:54:52.867Z,18.48
2023-10-26T18:57:20.188Z,21.77
2023-10-26T18:59:47.596Z,22.17
2023-10-26T19:02:15.069Z,21.83
2023-10-26T19:04:42.512Z,20.33
2023-10-26T19:07:12.123Z,19.45
2023-10-26T19:09:39.649Z,20.85
2023-10-26T19:12:07.183Z,30.63
2023-10-26T19:14:34.685Z,26.10
2023-10-26T19:17:02.124Z,26.17
2023-10-26T19:19:29.555Z,24.08
2023-10-26T19:21:56.987Z,22.48
2023-10-26T19:24:25.261Z,24.05
2023-10-26T19:26:52.623Z,20.83
2023-10-26T19:29:19.976Z,21.67
2023-10-26T19:31:47.353Z,24.02
2023-10-26T19:34:14.793Z,21.27
2023-10-26T19:36:42.222Z,22.98
2023-10-26T19:39:09.820Z,22.17
2023-10-26T19:41:37.291Z,24.42
2023-10-26T19:44:04.810Z,25.95
2023-10-26T19:46:33.789Z,24.75
2023-10-26T19:49:01.422Z,23.15
2023-10-26T19:51:28.916Z,26.83
2023-10-26T19:53:56.313Z,25.67
2023-10-26T19:56:23.688Z,26.92
2023-10-26T19:58:51.169Z,26.98
2023-10-26T20:01:18.788Z,30.30
2023-10-26T20:03:47.009Z,26.37
2023-10-26T20:06:14.459Z,27.10
2023-10-26T20:08:41.856Z,32.95
2023-10-26T20:11:12.307Z,27.17
2023-10-26T20:13:39.746Z,27.23
2023-10-26T20:16:07.315Z,23.53
2023-10-26T20:18:45.954Z,30.13
2023-10-26T20:21:13.324Z,28.58
2023-10-26T20:23:40.770Z,28.27
2023-10-26T20:26:08.311Z,27.67
2023-10-26T20:28:35.901Z,30.83
2023-10-26T20:31:03.338Z,26.75
2023-10-26T20:33:30.823Z,29.30
2023-10-26T20:35:58.308Z,28.92
2023-10-26T20:38:25.681Z,30.92
2023-10-26T20:40:52.970Z,29.67
2023-10-26T20:43:20.385Z,31.17
2023-10-26T20:45:47.789Z,26.33
2023-10-26T20:48:15.202Z,28.63
2023-10-26T20:50:42.663Z,32.15
2023-10-26T20:53:10.165Z,28.73
2023-10-26T20:55:37.968Z,30.65
2023-10-26T20:58:05.393Z,31.45
2023-10-26T21:00:32.739Z,33.60
2023-10-26T21:03:00.181Z,30.17
2023-10-26T21:05:27.797Z,33.47
2023-10-26T21:07:55.708Z,31.80
2023-10-26T21:10:23.247Z,30.13
2023-10-26T21:12:50.927Z,32.75
2023-10-26T21:15:18.758Z,33.35
2023-10-26T21:17:46.183Z,35.50
2023-10-26T21:20:14.124Z,33.53
2023-10-26T21:22:41.452Z,33.15
2023-10-26T21:25:09.200Z,31.52
2023-10-26T21:27:37.100Z,32.80
2023-10-26T21:30:06.553Z,29.77
2023-10-26T21:32:34.058Z,34.25
2023-10-26T21:35:02.131Z,34.42
2023-10-26T21:37:29.535Z,31.35
2023-10-26T21:39:57.235Z,34.08
2023-10-26T21:42:26.970Z,34.37
2023-10-26T21:44:54.596Z,32.85
2023-10-26T21:47:21.953Z,37.30
2023-10-26T21:49:49.370Z,30.65
2023-10-26T21:52:16.840Z,35.88
2023-10-26T21:54:44.298Z,35.13
2023-10-26T21:57:11.697Z,34.05
2023-10-26T21:59:39.038Z,32.20
2023-10-26T22:02:08.875Z,33.22
2023-10-26T22:04:36.907Z,32.78
2023-10-26T22:07:04.448Z,34.43
2023-10-26T22:09:35.940Z,34.88
2023-10-26T22:12:09.036Z,35.97
2023-10-26T22:14:36.481Z,34.65
2023-10-26T22:17:04.198Z,33.83
2023-10-26T22:19:31.666Z,38.20
2023-10-26T22:21:59.102Z,35.97
2023-10-26T22:24:26.542Z,37.33
2023-10-26T22:26:53.905Z,33.65
2023-10-26T22:29:30.287Z,37.28
2023-10-26T22:31:58.981Z,35.07
2023-10-26T22:34:26.523Z,35.85
2023-10-26T22:36:53.969Z,39.28
2023-10-26T22:39:21.387Z,38.70
2023-10-26T22:41:49.149Z,38.05
2023-10-26T22:44:16.539Z,38.23
2023-10-26T22:46:43.884Z,37.05
2023-10-26T22:49:11.356Z,39.33
2023-10-26T22:51:38.870Z,35.83
2023-10-26T22:54:06.311Z,34.03
2023-10-26T22:56:33.693Z,41.33
2023-10-26T22:59:01.061Z,37.95
2023-10-26T23:01:28.437Z,34.22
2023-10-26T23:03:55.916Z,38.60
2023-10-26T23:06:23.953Z,36.15
2023-10-26T23:08:51.400Z,35.40
2023-10-26T23:11:18.768Z,36.47
2023-10-26T23:13:46.062Z,41.95
2023-10-26T23:16:13.519Z,35.10
2023-10-26T23:18:40.988Z,36.33
2023-10-26T23:21:08.396Z,36.73
2023-10-26T23:23:39.505Z,36.85
2023-10-26T23:26:09.900Z,35.22
2023-10-26T23:28:37.484Z,37.42
2023-10-26T23:31:11.653Z,37.95
2023-10-26T23:33:39.536Z,36.67
2023-10-26T23:36:07.446Z,38.08
2023-10-26T23:38:35.211Z,37.45
2023-10-26T23:41:02.600Z,34.53
2023-10-26T23:43:30.051Z,40.42
2023-10-26T23:45:59.037Z,37.07
2023-10-26T23:48:26.722Z,38.38
2023-10-26T23:50:54.391Z,37.38
2023-10-26T23:53:22.191Z,36.17
2023-10-26T23:55:50.260Z,37.72
2023-10-26T23:58:17.678Z,39.40
